Time;durP1;ratioP1;P1;durP2;ratioP2;P2;SDS_P1;SDS_P2;PMS_P1;PMS_P2;Temp;Humidity;BMP_temperature;BMP_pressure;BME280_temperature;BME280_humidity;BME280_pressure;Samples;Min_cycle;Max_cycle;Signal;HPM_P1;HPM_P2
2021/03/26 00:01:25;;;;;;;21.92;13.63;;;7.90;99.90;;;;;;5079322;28;20197;-75
2021/03/26 00:03:54;;;;;;;24.40;12.07;;;7.90;99.90;;;;;;5079291;28;20238;-75
2021/03/26 00:06:25;;;;;;;21.70;13.02;;;7.90;99.90;;;;;;5071900;28;20201;-75
2021/03/26 00:08:52;;;;;;;32.08;14.60;;;7.90;99.90;;;;;;5083277;28;20211;-75
2021/03/26 00:11:21;;;;;;;26.27;13.10;;;7.80;99.90;;;;;;5067727;28;20193;-73
2021/03/26 00:13:48;;;;;;;25.13;13.50;;;7.80;99.90;;;;;;5076996;28;20210;-74
2021/03/26 00:16:14;;;;;;;22.23;13.07;;;7.70;99.90;;;;;;5080959;28;20200;-74
2021/03/26 00:18:41;;;;;;;27.52;12.65;;;7.70;99.90;;;;;;5075014;28;20213;-74
2021/03/26 00:21:08;;;;;;;25.45;13.80;;;7.70;99.90;;;;;;5076554;28;20224;-74
2021/03/26 00:23:35;;;;;;;21.70;12.65;;;7.60;99.90;;;;;;5077217;28;20197;-74
2021/03/26 00:26:02;;;;;;;21.48;12.65;;;7.60;99.90;;;;;;5073565;28;20204;-74
2021/03/26 00:28:29;;;;;;;22.88;11.75;;;7.60;99.90;;;;;;5077483;28;20196;-74
2021/03/26 00:30:55;;;;;;;19.42;12.85;;;7.70;99.90;;;;;;5083003;28;20220;-74
2021/03/26 00:33:22;;;;;;;23.73;12.82;;;7.70;99.90;;;;;;5081838;28;20208;-74
2021/03/26 00:35:49;;;;;;;24.00;12.35;;;7.70;99.90;;;;;;5074096;28;20212;-75
2021/03/26 00:38:16;;;;;;;21.85;13.00;;;7.70;99.90;;;;;;5074991;28;20205;-74
2021/03/26 00:40:43;;;;;;;22.75;13.88;;;7.80;99.90;;;;;;5080179;28;20631;-75
2021/03/26 00:43:10;;;;;;;27.00;13.95;;;7.80;99.90;;;;;;5070672;28;20617;-75
2021/03/26 00:45:38;;;;;;;23.55;13.80;;;7.90;99.90;;;;;;5075902;28;20220;-74
2021/03/26 00:48:05;;;;;;;27.52;13.90;;;7.90;99.90;;;;;;5078791;28;20201;-74
2021/03/26 00:50:35;;;;;;;24.92;14.30;;;7.90;99.90;;;;;;5068955;28;20202;-75
2021/03/26 00:53:04;;;;;;;21.13;13.60;;;7.80;99.90;;;;;;5079294;28;20207;-75
2021/03/26 00:55:32;;;;;;;30.02;13.05;;;7.80;99.90;;;;;;5086521;28;20208;-74
2021/03/26 00:57:58;;;;;;;21.65;12.43;;;7.80;99.90;;;;;;5079728;28;20204;-75
2021/03/26 01:00:27;;;;;;;24.90;13.90;;;7.80;99.90;;;;;;5073230;28;20203;-75
2021/03/26 01:02:54;;;;;;;23.45;13.15;;;7.70;99.90;;;;;;5083976;28;20225;-74
2021/03/26 01:05:24;;;;;;;26.20;13.50;;;7.70;99.90;;;;;;5076311;28;20216;-74
2021/03/26 01:07:51;;;;;;;23.52;13.13;;;7.60;99.90;;;;;;5073818;28;20208;-75
2021/03/26 01:10:21;;;;;;;26.55;13.75;;;7.60;99.90;;;;;;5073272;28;20205;-75
2021/03/26 01:12:49;;;;;;;24.20;13.13;;;7.60;99.90;;;;;;5076454;28;20219;-75
2021/03/26 01:15:17;;;;;;;27.25;12.77;;;7.60;99.90;;;;;;5074222;28;20780;-75
2021/03/26 01:17:44;;;;;;;23.65;13.43;;;7.50;99.90;;;;;;5077379;28;20197;-75
2021/03/26 01:20:16;;;;;;;25.40;13.52;;;7.50;99.90;;;;;;5070201;28;20204;-75
2021/03/26 01:22:43;;;;;;;27.05;14.95;;;7.40;99.90;;;;;;5074250;28;20208;-75
2021/03/26 01:25:11;;;;;;;24.63;14.43;;;7.40;99.90;;;;;;5067905;28;20227;-75
2021/03/26 01:27:37;;;;;;;22.38;13.60;;;7.30;99.90;;;;;;5073243;28;20213;-75
2021/03/26 01:30:09;;;;;;;22.42;13.80;;;7.30;99.90;;;;;;5080705;28;20205;-75
2021/03/26 01:32:36;;;;;;;26.23;14.68;;;7.30;99.90;;;;;;5072796;28;20224;-75
2021/03/26 01:35:03;;;;;;;27.60;14.18;;;7.20;99.90;;;;;;5068637;28;20595;-75
2021/03/26 01:37:29;;;;;;;26.35;14.13;;;7.20;99.90;;;;;;5068426;28;20200;-75
2021/03/26 01:39:55;;;;;;;25.25;14.10;;;7.20;99.90;;;;;;5081292;28;20209;-75
2021/03/26 01:42:26;;;;;;;24.73;13.63;;;7.20;99.90;;;;;;5078692;28;20208;-75
2021/03/26 01:44:53;;;;;;;29.17;15.10;;;7.10;99.90;;;;;;5078695;28;20232;-75
2021/03/26 01:47:20;;;;;;;27.60;14.27;;;7.10;99.90;;;;;;5080445;28;20592;-75
2021/03/26 01:49:47;;;;;;;23.55;13.48;;;7.10;99.90;;;;;;5080804;28;20204;-75
2021/03/26 01:52:13;;;;;;;31.38;14.73;;;7.10;99.90;;;;;;5079179;28;20200;-74
2021/03/26 01:54:40;;;;;;;33.00;16.00;;;7.00;99.90;;;;;;5078813;28;20213;-73
2021/03/26 01:57:07;;;;;;;24.23;14.00;;;7.00;99.90;;;;;;5071949;28;20209;-74
2021/03/26 01:59:34;;;;;;;28.60;14.55;;;7.00;99.90;;;;;;5079315;28;20202;-75
2021/03/26 02:02:06;;;;;;;24.65;13.48;;;6.90;99.90;;;;;;5075236;28;20570;-74
2021/03/26 02:04:37;;;;;;;24.20;13.70;;;6.90;99.90;;;;;;5074801;28;20240;-75
2021/03/26 02:07:04;;;;;;;28.27;13.98;;;6.80;99.90;;;;;;5076460;28;20197;-74
2021/03/26 02:09:33;;;;;;;26.60;13.90;;;6.80;99.90;;;;;;5071946;28;20208;-74
2021/03/26 02:12:04;;;;;;;29.60;15.48;;;6.80;99.90;;;;;;5067858;28;20201;-75
2021/03/26 02:14:34;;;;;;;28.35;15.15;;;6.80;99.90;;;;;;5080345;28;20227;-75
2021/03/26 02:17:01;;;;;;;24.15;14.05;;;6.70;99.90;;;;;;5078550;28;20250;-75
2021/03/26 02:19:34;;;;;;;27.52;14.40;;;6.70;99.90;;;;;;5068749;28;20209;-75
2021/03/26 02:22:01;;;;;;;30.60;13.30;;;6.70;99.90;;;;;;5079200;28;20665;-75
2021/03/26 02:24:29;;;;;;;28.05;15.93;;;6.70;99.90;;;;;;5079375;28;20244;-75
2021/03/26 02:27:00;;;;;;;31.13;15.90;;;6.60;99.90;;;;;;5071509;28;20205;-76
2021/03/26 02:29:31;;;;;;;27.58;16.85;;;6.60;99.90;;;;;;5074702;28;20203;-74
2021/03/26 02:32:01;;;;;;;28.45;14.68;;;6.60;99.90;;;;;;5075372;28;20236;-74
2021/03/26 02:34:29;;;;;;;34.33;15.35;;;6.60;99.90;;;;;;5083886;28;20216;-75
2021/03/26 02:36:57;;;;;;;27.13;14.73;;;6.50;99.90;;;;;;5069326;28;20197;-75
2021/03/26 02:39:32;;;;;;;29.65;15.13;;;6.50;99.90;;;;;;5072422;28;20206;-75
2021/03/26 02:42:03;;;;;;;33.70;16.35;;;6.50;99.90;;;;;;5073606;28;20223;-74
2021/03/26 02:44:42;;;;;;;35.65;15.35;;;6.40;99.90;;;;;;5079189;28;20263;-75
2021/03/26 02:47:21;;;;;;;27.17;13.57;;;6.40;99.90;;;;;;5073223;28;20212;-75
2021/03/26 02:49:54;;;;;;;28.70;15.35;;;6.40;99.90;;;;;;5083845;28;20204;-75
2021/03/26 02:52:28;;;;;;;31.45;15.68;;;6.40;99.90;;;;;;5077050;28;20254;-75
2021/03/26 02:55:02;;;;;;;25.85;14.23;;;6.40;99.90;;;;;;5070805;28;20208;-75
2021/03/26 02:57:32;;;;;;;33.13;15.15;;;6.30;99.90;;;;;;5076200;28;20204;-75
2021/03/26 03:00:02;;;;;;;24.50;14.07;;;6.30;99.90;;;;;;5072353;28;20531;-75
2021/03/26 03:02:30;;;;;;;26.48;15.27;;;6.30;99.90;;;;;;5071094;28;20201;-75
2021/03/26 03:05:02;;;;;;;28.92;14.82;;;6.20;99.90;;;;;;5077643;28;20243;-75
2021/03/26 03:07:31;;;;;;;22.92;13.65;;;6.20;99.90;;;;;;5078030;28;20184;-75
2021/03/26 03:10:05;;;;;;;25.05;13.45;;;6.10;99.90;;;;;;5066833;28;20212;-75
2021/03/26 03:12:37;;;;;;;35.65;16.58;;;6.20;99.90;;;;;;5074003;28;20197;-74
2021/03/26 03:15:09;;;;;;;32.97;14.80;;;6.20;99.90;;;;;;5082046;28;20208;-75
2021/03/26 03:17:41;;;;;;;26.15;13.82;;;6.20;99.90;;;;;;5072744;28;20197;-75
2021/03/26 03:20:13;;;;;;;32.70;15.98;;;6.10;99.90;;;;;;5084450;28;20222;-74
2021/03/26 03:22:43;;;;;;;28.42;14.70;;;6.10;99.90;;;;;;5074416;28;20208;-74
2021/03/26 03:25:15;;;;;;;30.25;15.23;;;6.00;99.90;;;;;;5077381;28;20233;-75
2021/03/26 03:27:46;;;;;;;33.00;16.15;;;6.10;99.90;;;;;;5076920;28;20667;-74
2021/03/26 03:30:33;;;;;;;41.15;15.90;;;6.00;99.90;;;;;;5068592;28;20205;-74
2021/03/26 03:33:06;;;;;;;34.58;16.38;;;6.00;99.90;;;;;;5079178;28;20204;-74
2021/03/26 03:35:38;;;;;;;31.88;15.48;;;6.00;99.90;;;;;;5071964;28;20193;-75
2021/03/26 03:38:15;;;;;;;32.05;15.55;;;6.00;99.90;;;;;;5076179;28;20208;-74
2021/03/26 03:40:52;;;;;;;27.52;15.50;;;5.90;99.90;;;;;;5084049;28;20215;-74
2021/03/26 03:43:23;;;;;;;32.45;15.55;;;5.90;99.90;;;;;;5071049;28;20208;-74
2021/03/26 03:45:58;;;;;;;33.72;17.65;;;5.90;99.90;;;;;;5076371;28;20229;-74
2021/03/26 03:48:34;;;;;;;36.25;17.00;;;5.90;99.90;;;;;;5086189;28;20261;-75
2021/03/26 03:51:05;;;;;;;31.73;15.30;;;5.90;99.90;;;;;;5076599;28;20193;-75
2021/03/26 03:53:39;;;;;;;26.13;14.52;;;5.90;99.90;;;;;;5070707;28;20205;-75
2021/03/26 03:56:15;;;;;;;37.25;17.50;;;5.90;99.90;;;;;;5082017;28;20208;-75
2021/03/26 03:58:45;;;;;;;32.63;15.82;;;5.90;99.90;;;;;;5077460;28;20204;-74
2021/03/26 04:01:16;;;;;;;34.65;16.05;;;5.90;99.90;;;;;;5081684;28;20260;-74
2021/03/26 04:03:50;;;;;;;38.88;16.90;;;5.90;99.90;;;;;;5076969;28;20249;-75
2021/03/26 04:06:20;;;;;;;39.38;17.25;;;5.90;99.90;;;;;;5072049;28;20229;-74
2021/03/26 04:08:53;;;;;;;34.55;18.42;;;5.90;99.90;;;;;;5081168;28;20235;-74
2021/03/26 04:11:25;;;;;;;34.50;16.83;;;5.90;99.90;;;;;;5081066;28;20223;-74
2021/03/26 04:13:58;;;;;;;40.45;16.90;;;5.90;99.90;;;;;;5070256;28;20205;-75
2021/03/26 04:16:26;;;;;;;31.85;17.65;;;6.00;99.90;;;;;;5077595;28;20205;-75
2021/03/26 04:18:58;;;;;;;30.80;16.45;;;6.00;99.90;;;;;;5078844;28;20223;-75
2021/03/26 04:21:28;;;;;;;37.00;18.05;;;6.10;99.90;;;;;;5089770;28;20218;-74
2021/03/26 04:23:59;;;;;;;28.58;15.73;;;6.10;99.90;;;;;;5085656;28;20208;-75
2021/03/26 04:26:32;;;;;;;30.90;17.52;;;6.10;99.90;;;;;;5072011;28;20208;-75
2021/03/26 04:29:06;;;;;;;32.67;15.75;;;6.10;99.90;;;;;;5074922;28;20198;-75
2021/03/26 04:31:47;;;;;;;35.70;16.30;;;6.10;99.90;;;;;;5080570;28;20302;-75
2021/03/26 04:34:15;;;;;;;36.30;18.80;;;6.10;99.90;;;;;;5086905;28;20204;-75
2021/03/26 04:36:57;;;;;;;32.63;16.13;;;6.10;99.90;;;;;;5082423;28;20197;-75
2021/03/26 04:39:30;;;;;;;32.88;15.90;;;6.10;99.90;;;;;;5078500;28;20204;-75
2021/03/26 04:42:06;;;;;;;39.45;17.65;;;6.10;99.90;;;;;;5075409;28;20204;-75
2021/03/26 04:44:45;;;;;;;32.72;17.17;;;6.10;99.90;;;;;;5083918;28;20231;-75
2021/03/26 04:47:20;;;;;;;39.63;19.10;;;6.10;99.90;;;;;;5071709;28;20218;-75
2021/03/26 04:49:52;;;;;;;40.25;18.48;;;6.10;99.90;;;;;;5080323;28;20204;-75
2021/03/26 04:52:25;;;;;;;38.83;19.73;;;6.10;99.90;;;;;;5075232;28;20205;-75
2021/03/26 04:55:02;;;;;;;43.42;19.52;;;6.10;99.90;;;;;;5081628;28;20201;-75
2021/03/26 04:57:36;;;;;;;42.90;20.25;;;6.20;99.90;;;;;;5076031;28;20227;-75
2021/03/26 05:00:08;;;;;;;37.22;20.30;;;6.20;99.90;;;;;;5072499;28;20218;-75
2021/03/26 05:02:36;;;;;;;37.30;19.48;;;6.20;99.90;;;;;;5076347;28;20208;-75
2021/03/26 05:05:05;;;;;;;36.20;18.17;;;6.20;99.90;;;;;;5084258;28;20639;-75
2021/03/26 05:07:35;;;;;;;51.15;21.17;;;6.20;99.90;;;;;;5077885;28;20204;-75
2021/03/26 05:10:06;;;;;;;40.90;20.00;;;6.20;99.90;;;;;;5073288;28;20205;-75
2021/03/26 05:12:36;;;;;;;44.92;21.95;;;6.30;99.90;;;;;;5073475;28;20205;-75
2021/03/26 05:15:09;;;;;;;39.47;20.83;;;6.30;99.90;;;;;;5078716;28;20212;-75
2021/03/26 05:17:42;;;;;;;44.10;21.75;;;6.30;99.90;;;;;;5075378;28;20207;-75
2021/03/26 05:20:19;;;;;;;41.92;20.77;;;6.30;99.90;;;;;;5078713;28;20204;-75
2021/03/26 05:22:52;;;;;;;54.90;23.60;;;6.40;99.90;;;;;;5081849;28;20207;-74
2021/03/26 05:25:26;;;;;;;57.10;25.35;;;6.30;99.90;;;;;;5085243;28;20454;-74
2021/03/26 05:27:54;;;;;;;52.35;24.65;;;6.40;99.90;;;;;;5085906;28;20200;-75
2021/03/26 05:30:23;;;;;;;54.78;28.13;;;6.40;99.90;;;;;;5085599;28;20197;-75
2021/03/26 05:32:56;;;;;;;53.13;26.00;;;6.50;99.90;;;;;;5079847;28;20209;-75
2021/03/26 05:35:25;;;;;;;60.47;25.15;;;6.50;99.90;;;;;;5083567;28;20211;-75
2021/03/26 05:37:59;;;;;;;60.60;26.95;;;6.60;99.90;;;;;;5075259;28;20205;-75
2021/03/26 05:41:02;;;;;;;53.72;25.48;;;6.60;99.90;;;;;;5072621;28;20636;-75
2021/03/26 05:43:54;;;;;;;49.42;24.15;;;6.70;99.90;;;;;;5059777;28;20197;-74
2021/03/26 05:46:30;;;;;;;51.70;24.25;;;6.80;99.90;;;;;;5057844;28;20274;-74
2021/03/26 05:49:04;;;;;;;49.30;24.35;;;6.80;99.90;;;;;;5079681;28;20208;-74
2021/03/26 05:52:26;;;;;;;59.15;26.67;;;6.80;99.90;;;;;;5074137;28;20203;-74
2021/03/26 05:55:10;;;;;;;46.05;23.02;;;7.00;99.90;;;;;;4997178;28;20283;-74
2021/03/26 05:57:43;;;;;;;49.08;24.73;;;7.00;99.90;;;;;;4998541;28;20724;-74
2021/03/26 06:00:37;;;;;;;51.03;24.92;;;7.00;99.90;;;;;;4996340;28;20247;-74
2021/03/26 06:03:46;;;;;;;54.53;24.23;;;7.10;99.90;;;;;;5002964;28;20238;-74
2021/03/26 06:07:01;;;;;;;53.30;25.05;;;7.10;99.90;;;;;;4999429;28;20732;-75
2021/03/26 06:10:06;;;;;;;52.63;23.88;;;7.20;99.90;;;;;;4932583;29;20825;-74
2021/03/26 06:13:06;;;;;;;49.65;24.15;;;7.30;99.90;;;;;;4919963;29;20237;-75
2021/03/26 06:16:02;;;;;;;53.78;25.92;;;7.30;99.90;;;;;;4945270;29;20208;-74
2021/03/26 06:19:06;;;;;;;51.03;25.23;;;7.40;99.90;;;;;;4944462;29;20198;-76
2021/03/26 06:21:45;;;;;;;55.80;23.83;;;7.40;99.90;;;;;;4945672;29;20262;-75
2021/03/26 06:24:50;;;;;;;47.28;24.77;;;7.50;99.90;;;;;;4945319;29;20212;-75
2021/03/26 06:27:24;;;;;;;55.75;23.88;;;7.60;99.90;;;;;;4851775;29;20212;-75
2021/03/26 06:30:02;;;;;;;44.72;23.95;;;7.70;99.90;;;;;;4864838;29;20214;-75
2021/03/26 06:33:14;;;;;;;45.22;24.65;;;7.80;99.90;;;;;;4917872;29;20205;-75
2021/03/26 06:36:18;;;;;;;47.65;25.35;;;7.90;99.90;;;;;;4919610;29;20230;-75
2021/03/26 06:39:20;;;;;;;49.40;22.70;;;8.00;99.90;;;;;;4915929;29;20228;-75
2021/03/26 06:42:05;;;;;;;46.15;24.05;;;8.10;99.90;;;;;;4915728;29;20273;-75
2021/03/26 06:45:06;;;;;;;44.60;22.75;;;8.20;99.90;;;;;;4990491;28;20234;-75
2021/03/26 06:47:50;;;;;;;52.40;23.17;;;8.30;99.90;;;;;;4992944;28;20207;-75
2021/03/26 06:50:32;;;;;;;41.35;22.55;;;8.40;99.90;;;;;;5002357;28;20210;-75
2021/03/26 06:53:11;;;;;;;41.35;21.33;;;8.50;99.90;;;;;;4994838;28;20213;-75
2021/03/26 06:55:48;;;;;;;44.22;23.13;;;8.60;99.90;;;;;;4994051;28;20211;-75
2021/03/26 06:59:04;;;;;;;48.70;23.20;;;8.70;99.90;;;;;;4994846;28;20320;-75
2021/03/26 07:01:48;;;;;;;51.20;23.15;;;8.80;99.90;;;;;;4944877;29;20620;-75
2021/03/26 07:04:57;;;;;;;45.47;23.17;;;8.90;99.90;;;;;;5009613;28;20237;-75
2021/03/26 07:08:07;;;;;;;46.35;21.35;;;8.90;99.90;;;;;;5017861;28;20214;-74
2021/03/26 07:10:41;;;;;;;43.53;22.70;;;9.00;99.90;;;;;;5008607;28;20198;-75
2021/03/26 07:13:32;;;;;;;42.50;21.88;;;9.10;99.90;;;;;;5022353;28;20199;-76
2021/03/26 07:16:20;;;;;;;41.80;22.42;;;9.20;99.90;;;;;;5010141;28;20609;-76
2021/03/26 07:19:02;;;;;;;48.35;23.38;;;9.40;99.90;;;;;;5013356;28;20203;-76
2021/03/26 07:21:46;;;;;;;41.38;22.50;;;9.40;99.90;;;;;;5016991;28;20198;-77
2021/03/26 07:24:41;;;;;;;36.90;19.75;;;9.60;99.90;;;;;;5013388;28;20206;-75
2021/03/26 07:27:19;;;;;;;40.22;21.25;;;9.70;99.90;;;;;;5018968;28;20203;-76
2021/03/26 07:30:11;;;;;;;42.72;21.98;;;9.80;99.90;;;;;;5017710;28;20230;-75
2021/03/26 07:32:52;;;;;;;39.10;22.33;;;10.00;99.90;;;;;;5047898;28;20215;-76
2021/03/26 07:35:41;;;;;;;39.40;21.85;;;10.20;99.90;;;;;;5074879;28;20654;-76
2021/03/26 07:38:52;;;;;;;41.83;20.98;;;10.30;99.90;;;;;;5070450;28;20690;-76
2021/03/26 07:41:37;;;;;;;42.15;20.00;;;10.50;99.90;;;;;;5079489;28;20200;-75
2021/03/26 07:44:19;;;;;;;36.58;20.83;;;11.20;99.90;;;;;;5070610;28;20217;-75
2021/03/26 07:47:07;;;;;;;31.45;19.13;;;11.90;99.90;;;;;;5071528;28;20205;-75
2021/03/26 07:50:06;;;;;;;36.30;21.55;;;12.50;99.90;;;;;;5074548;28;20201;-75
2021/03/26 07:52:39;;;;;;;42.03;23.27;;;13.30;99.90;;;;;;5081509;28;20662;-76
2021/03/26 07:55:19;;;;;;;34.35;21.02;;;13.90;99.90;;;;;;5071532;28;20214;-75
2021/03/26 07:58:28;;;;;;;32.10;20.48;;;14.50;99.90;;;;;;5077654;28;20199;-75
2021/03/26 08:01:22;;;;;;;36.15;21.45;;;15.00;99.90;;;;;;5072969;28;20472;-76
2021/03/26 08:03:59;;;;;;;32.35;21.80;;;15.10;99.90;;;;;;5074724;28;20237;-76
2021/03/26 08:06:53;;;;;;;36.97;22.50;;;15.60;99.90;;;;;;5073186;28;20927;-75
2021/03/26 08:09:34;;;;;;;34.75;22.55;;;16.30;99.90;;;;;;5074600;28;20219;-76
2021/03/26 08:12:09;;;;;;;30.42;21.25;;;16.90;99.90;;;;;;5073515;28;20201;-75
2021/03/26 08:15:03;;;;;;;32.85;19.95;;;17.20;99.90;;;;;;5087365;28;20200;-76
2021/03/26 08:17:42;;;;;;;31.40;21.08;;;17.70;99.90;;;;;;5078809;28;20261;-76
2021/03/26 08:20:22;;;;;;;35.72;19.42;;;18.40;99.90;;;;;;5070805;28;20205;-76
2021/03/26 08:23:14;;;;;;;27.77;18.77;;;19.00;99.90;;;;;;5078652;28;20229;-76
2021/03/26 08:25:47;;;;;;;30.77;19.70;;;19.50;99.90;;;;;;5071013;28;20227;-76
2021/03/26 08:28:49;;;;;;;29.67;18.50;;;19.50;99.90;;;;;;5073820;28;20204;-76
2021/03/26 08:31:41;;;;;;;31.23;18.27;;;20.10;99.90;;;;;;5020377;28;20234;-76
2021/03/26 08:34:33;;;;;;;24.15;17.48;;;20.40;99.90;;;;;;5025820;28;20217;-76
2021/03/26 08:37:09;;;;;;;27.92;18.42;;;20.80;99.90;;;;;;4979894;28;20206;-73
2021/03/26 08:39:41;;;;;;;29.58;18.50;;;21.10;99.90;;;;;;5017878;28;20234;-73
2021/03/26 08:42:21;;;;;;;25.27;17.85;;;21.00;99.90;;;;;;5008459;28;20207;-74
2021/03/26 08:44:52;;;;;;;22.88;16.92;;;21.20;99.90;;;;;;5022798;28;20227;-73
2021/03/26 08:47:26;;;;;;;26.10;16.58;;;21.70;99.90;;;;;;5019696;28;20207;-73
2021/03/26 08:49:56;;;;;;;20.00;15.07;;;21.90;99.90;;;;;;5011493;28;20214;-75
2021/03/26 08:52:45;;;;;;;22.25;15.35;;;22.10;98.40;;;;;;5013521;28;20206;-76
2021/03/26 08:55:58;;;;;;;23.40;15.52;;;22.30;97.50;;;;;;5011435;28;20238;-76
2021/03/26 08:58:40;;;;;;;24.85;15.80;;;22.20;96.70;;;;;;5020734;28;20210;-74
2021/03/26 09:01:26;;;;;;;20.25;14.57;;;21.80;96.90;;;;;;5011343;28;20326;-73
2021/03/26 09:04:08;;;;;;;21.55;13.68;;;21.40;96.70;;;;;;5012248;28;20264;-73
2021/03/26 09:06:49;;;;;;;18.85;14.30;;;21.70;96.30;;;;;;5045900;28;20287;-73
2021/03/26 09:09:27;;;;;;;22.83;14.57;;;21.80;95.90;;;;;;5073188;28;20202;-73
2021/03/26 09:12:14;;;;;;;18.35;14.73;;;21.80;95.40;;;;;;5076992;28;20278;-73
2021/03/26 09:14:59;;;;;;;22.70;14.60;;;22.00;95.60;;;;;;5073429;28;20202;-73
2021/03/26 09:17:31;;;;;;;21.50;14.27;;;22.20;94.70;;;;;;5075386;28;20201;-73
2021/03/26 09:20:06;;;;;;;22.35;14.70;;;22.20;94.50;;;;;;5072681;28;20204;-73
2021/03/26 09:22:50;;;;;;;23.40;14.88;;;21.60;94.60;;;;;;5079124;28;20197;-73
2021/03/26 09:25:41;;;;;;;23.80;14.80;;;22.00;94.60;;;;;;5075713;28;20242;-73
2021/03/26 09:28:14;;;;;;;20.63;13.57;;;22.00;94.50;;;;;;5071000;28;20194;-76
2021/03/26 09:30:45;;;;;;;24.83;15.00;;;22.20;94.00;;;;;;5067693;28;20664;-73
2021/03/26 09:33:14;;;;;;;19.33;13.65;;;22.00;94.30;;;;;;5080030;28;20210;-73
2021/03/26 09:35:46;;;;;;;20.10;13.20;;;22.50;94.30;;;;;;5078351;28;20198;-74
2021/03/26 09:38:25;;;;;;;17.83;12.73;;;22.70;93.20;;;;;;5073784;28;20237;-74
2021/03/26 09:41:04;;;;;;;18.63;12.90;;;22.80;92.90;;;;;;5083682;28;20197;-74
2021/03/26 09:43:34;;;;;;;22.00;12.35;;;23.30;92.80;;;;;;5069850;28;20206;-74
2021/03/26 09:46:09;;;;;;;22.63;12.02;;;23.50;92.10;;;;;;5077850;28;20222;-76
2021/03/26 09:48:57;;;;;;;22.80;12.77;;;23.80;91.40;;;;;;5074180;28;20198;-74
2021/03/26 09:51:45;;;;;;;19.85;12.30;;;23.30;91.40;;;;;;5072035;28;20212;-74
2021/03/26 09:54:35;;;;;;;19.38;10.73;;;23.00;91.00;;;;;;5077741;28;20220;-76
2021/03/26 09:57:21;;;;;;;16.05;10.98;;;22.50;91.50;;;;;;5074099;28;20203;-74
2021/03/26 09:59:56;;;;;;;16.75;12.13;;;22.40;91.00;;;;;;5078199;28;20217;-74
2021/03/26 10:02:32;;;;;;;16.13;10.98;;;21.70;91.50;;;;;;5073054;28;20205;-76
2021/03/26 10:05:07;;;;;;;15.43;9.68;;;21.40;92.10;;;;;;5083086;28;20244;-73
2021/03/26 10:07:42;;;;;;;18.25;9.65;;;21.40;92.10;;;;;;5078257;28;20201;-74
2021/03/26 10:13:08;;;;;;;13.40;8.95;;;22.00;92.60;;;;;;5077869;28;20671;-74
2021/03/26 10:15:38;;;;;;;12.40;9.60;;;22.80;91.00;;;;;;5068095;28;20207;-74
2021/03/26 10:18:11;;;;;;;17.15;9.45;;;22.60;91.30;;;;;;5071250;28;20206;-74
2021/03/26 10:20:44;;;;;;;13.80;9.27;;;22.20;91.00;;;;;;5076475;28;20208;-74
2021/03/26 10:23:29;;;;;;;12.90;8.55;;;22.10;91.00;;;;;;5072037;28;20215;-74
2021/03/26 10:26:09;;;;;;;12.65;8.88;;;22.30;90.80;;;;;;5080559;28;20222;-74
2021/03/26 10:29:12;;;;;;;11.98;8.38;;;22.10;91.10;;;;;;5077908;28;20225;-74
2021/03/26 10:31:40;;;;;;;9.45;7.15;;;22.00;90.90;;;;;;5081260;28;20215;-74
2021/03/26 10:34:10;;;;;;;13.43;7.05;;;22.40;89.90;;;;;;5073752;28;20215;-74
2021/03/26 10:36:46;;;;;;;10.30;7.15;;;22.90;90.00;;;;;;5078271;28;20230;-74
2021/03/26 10:39:16;;;;;;;13.10;7.53;;;22.70;88.10;;;;;;5076574;28;20206;-74
2021/03/26 10:42:06;;;;;;;14.55;7.78;;;22.60;89.00;;;;;;5073006;28;20204;-75
2021/03/26 10:44:39;;;;;;;14.52;7.18;;;22.10;88.10;;;;;;5066246;28;20343;-74
2021/03/26 10:47:20;;;;;;;14.32;7.30;;;21.70;88.70;;;;;;5073320;28;20215;-74
2021/03/26 10:49:52;;;;;;;9.55;6.90;;;21.40;89.20;;;;;;5076245;28;20211;-74
2021/03/26 10:52:25;;;;;;;9.85;6.57;;;20.70;88.60;;;;;;5077981;28;20298;-74
2021/03/26 10:54:58;;;;;;;16.00;6.93;;;19.70;89.70;;;;;;5078761;28;20678;-74
2021/03/26 10:57:35;;;;;;;13.23;5.93;;;19.10;90.40;;;;;;5080253;28;20211;-74
2021/03/26 11:00:09;;;;;;;11.15;6.43;;;19.30;90.60;;;;;;5083051;28;20231;-75
2021/03/26 11:05:06;;;;;;;9.43;5.85;;;20.10;90.00;;;;;;5109446;27;20586;-73
2021/03/26 11:07:39;;;;;;;11.10;6.47;;;20.30;90.20;;;;;;5106198;28;20260;-74
2021/03/26 11:10:08;;;;;;;18.58;6.80;;;19.90;90.00;;;;;;5103415;28;20211;-75
2021/03/26 11:12:41;;;;;;;12.38;5.07;;;19.70;89.50;;;;;;5102920;28;20206;-75
2021/03/26 11:15:14;;;;;;;7.82;5.65;;;19.10;89.90;;;;;;5103647;28;20217;-75
2021/03/26 11:18:01;;;;;;;8.55;4.25;;;18.70;90.30;;;;;;5102701;28;20226;-75
2021/03/26 11:20:51;;;;;;;9.48;4.22;;;18.50;90.50;;;;;;5107539;28;20211;-75
2021/03/26 11:23:25;;;;;;;8.98;4.38;;;18.20;90.40;;;;;;5101660;28;20269;-75
2021/03/26 11:28:40;;;;;;;8.85;5.10;;;17.40;90.50;;;;;;5102616;28;20203;-76
2021/03/26 11:31:19;;;;;;;13.77;5.88;;;17.40;91.40;;;;;;5110859;28;20248;-76
2021/03/26 11:33:53;;;;;;;7.40;5.20;;;17.40;91.30;;;;;;5101609;28;20200;-76
2021/03/26 11:36:52;;;;;;;10.57;4.80;;;17.20;91.90;;;;;;5117950;28;20620;-75
2021/03/26 11:39:24;;;;;;;11.23;4.97;;;17.20;91.40;;;;;;5114641;28;20988;-76
2021/03/26 11:41:57;;;;;;;6.90;5.32;;;17.10;91.90;;;;;;5113486;28;20206;-75
2021/03/26 11:44:29;;;;;;;7.53;5.60;;;17.20;92.10;;;;;;5109626;28;20232;-75
2021/03/26 11:46:58;;;;;;;9.80;5.25;;;17.20;92.00;;;;;;5101543;28;20215;-77
2021/03/26 11:49:28;;;;;;;11.52;5.53;;;17.30;91.80;;;;;;5102266;28;20257;-77
2021/03/26 11:52:04;;;;;;;8.60;4.70;;;17.30;91.90;;;;;;5103123;28;20225;-76
2021/03/26 11:54:41;;;;;;;8.20;5.45;;;17.20;92.30;;;;;;5101577;28;20214;-77
2021/03/26 11:57:13;;;;;;;8.00;4.97;;;17.40;92.10;;;;;;5108762;28;20211;-77
2021/03/26 12:00:03;;;;;;;10.98;4.72;;;17.50;92.70;;;;;;5108437;28;20206;-75
2021/03/26 12:02:52;;;;;;;17.83;5.55;;;17.60;92.60;;;;;;5100858;28;20206;-75
2021/03/26 12:05:33;;;;;;;14.38;5.60;;;17.80;92.30;;;;;;5105580;28;20244;-75
2021/03/26 12:08:14;;;;;;;7.43;5.30;;;17.60;91.80;;;;;;5106612;28;20210;-75
2021/03/26 12:10:43;;;;;;;8.57;5.25;;;17.40;92.70;;;;;;5102409;28;20204;-74
2021/03/26 12:13:17;;;;;;;11.20;5.85;;;17.40;92.50;;;;;;5101916;28;20207;-75
2021/03/26 12:15:52;;;;;;;8.70;5.50;;;17.50;93.00;;;;;;5090642;28;20196;-75
2021/03/26 12:18:26;;;;;;;12.75;5.68;;;17.70;92.70;;;;;;5095247;28;20207;-75
2021/03/26 12:21:05;;;;;;;11.95;6.32;;;17.70;92.90;;;;;;5095003;28;20200;-75
2021/03/26 12:23:37;;;;;;;11.05;5.05;;;17.70;92.70;;;;;;5087811;28;20242;-75
2021/03/26 12:26:17;;;;;;;8.38;5.10;;;17.70;92.30;;;;;;5087431;28;20209;-75
2021/03/26 12:29:14;;;;;;;13.38;4.88;;;17.50;92.50;;;;;;5096798;28;20222;-75
2021/03/26 12:31:46;;;;;;;8.80;5.05;;;17.60;92.90;;;;;;5090731;28;20231;-75
2021/03/26 12:34:23;;;;;;;10.82;6.47;;;17.70;93.00;;;;;;5088560;28;20212;-75
2021/03/26 12:36:54;;;;;;;13.85;6.45;;;17.70;92.40;;;;;;5106420;28;20206;-75
2021/03/26 12:39:30;;;;;;;7.18;5.95;;;17.70;92.20;;;;;;5095381;28;20223;-75
2021/03/26 12:42:05;;;;;;;8.77;5.32;;;17.50;92.50;;;;;;5092143;28;20576;-75
2021/03/26 12:44:37;;;;;;;17.17;6.38;;;17.50;92.40;;;;;;5090423;28;20224;-75
2021/03/26 12:47:24;;;;;;;10.05;6.00;;;17.50;92.50;;;;;;5090094;28;20236;-75
2021/03/26 12:50:14;;;;;;;16.30;5.43;;;17.60;92.70;;;;;;5092507;28;20204;-75
2021/03/26 12:52:56;;;;;;;12.73;5.70;;;17.60;93.00;;;;;;5099866;28;20199;-75
2021/03/26 12:55:34;;;;;;;9.35;5.75;;;17.60;92.70;;;;;;5096296;28;20197;-75
2021/03/26 12:58:16;;;;;;;11.05;5.90;;;17.50;92.80;;;;;;5088578;28;20201;-75
2021/03/26 13:00:51;;;;;;;13.90;5.95;;;17.50;93.00;;;;;;5092667;28;20230;-75
2021/03/26 13:03:32;;;;;;;8.23;5.78;;;17.60;92.90;;;;;;5088241;28;20242;-75
2021/03/26 13:06:09;;;;;;;8.68;5.45;;;17.70;92.70;;;;;;5087912;28;20196;-75
2021/03/26 13:08:38;;;;;;;9.88;5.68;;;17.80;92.70;;;;;;5089086;28;20195;-75
2021/03/26 13:11:21;;;;;;;17.85;6.13;;;17.70;92.40;;;;;;5087349;28;20231;-75
2021/03/26 13:14:05;;;;;;;13.13;6.28;;;17.70;92.70;;;;;;5090743;28;20210;-75
2021/03/26 13:16:41;;;;;;;16.38;6.85;;;17.60;92.40;;;;;;5085879;28;21043;-75
2021/03/26 13:19:16;;;;;;;11.40;6.15;;;17.60;92.40;;;;;;5091235;28;20685;-75
2021/03/26 13:21:54;;;;;;;11.90;5.90;;;17.50;92.40;;;;;;5089037;28;20673;-75
2021/03/26 13:24:34;;;;;;;11.77;6.03;;;17.60;92.90;;;;;;5091242;28;20768;-74
2021/03/26 13:27:30;;;;;;;7.60;5.60;;;17.80;93.00;;;;;;5089711;28;20580;-75
2021/03/26 13:30:22;;;;;;;11.77;6.30;;;17.90;92.50;;;;;;5094621;28;20205;-74
2021/03/26 13:33:07;;;;;;;7.60;5.63;;;17.90;92.30;;;;;;5086574;28;20205;-76
2021/03/26 13:35:38;;;;;;;8.00;5.65;;;17.80;92.70;;;;;;5087173;28;20208;-75